createdAt,value
2023-05-07T00:02:04.098Z,3.17
2023-05-07T00:04:36.852Z,2.67
2023-05-07T00:07:04.779Z,2.78
2023-05-07T00:09:31.587Z,2.80
2023-05-07T00:11:58.549Z,2.78
2023-05-07T00:14:26.127Z,3.47
2023-05-07T00:16:54.197Z,2.97
2023-05-07T00:19:21.293Z,2.80
2023-05-07T00:21:48.263Z,3.10
2023-05-07T00:24:15.035Z,3.05
2023-05-07T00:26:42.440Z,3.47
2023-05-07T00:29:09.328Z,3.00
2023-05-07T00:31:36.537Z,3.10
2023-05-07T00:34:03.902Z,3.15
2023-05-07T00:36:31.201Z,3.30
2023-05-07T00:38:58.768Z,2.60
2023-05-07T00:41:26.072Z,3.22
2023-05-07T00:43:53.080Z,3.00
2023-05-07T00:46:21.456Z,3.15
2023-05-07T00:48:48.898Z,3.42
2023-05-07T00:51:15.672Z,2.85
2023-05-07T00:53:42.469Z,3.20
2023-05-07T00:56:09.859Z,3.35
2023-05-07T00:58:36.834Z,3.35
2023-05-07T01:01:03.640Z,2.72
2023-05-07T01:03:31.117Z,2.72
2023-05-07T01:05:58.822Z,2.97
2023-05-07T01:08:28.142Z,4.15
2023-05-07T01:10:56.576Z,3.55
2023-05-07T01:13:24.243Z,3.33
2023-05-07T01:15:51.696Z,2.38
2023-05-07T01:18:18.507Z,2.88
2023-05-07T01:20:45.395Z,2.30
2023-05-07T01:23:13.303Z,3.67
2023-05-07T01:25:40.272Z,3.38
2023-05-07T01:28:07.492Z,2.72
2023-05-07T01:30:34.731Z,2.92
2023-05-07T01:33:10.447Z,2.50
2023-05-07T01:35:43.284Z,2.30
2023-05-07T01:38:10.159Z,3.10
2023-05-07T01:40:37.038Z,2.30
2023-05-07T01:43:04.093Z,2.92
2023-05-07T01:45:32.193Z,2.47
2023-05-07T01:48:00.225Z,2.90
2023-05-07T01:50:27.320Z,2.58
2023-05-07T01:52:54.248Z,2.60
2023-05-07T01:55:21.596Z,2.53
2023-05-07T01:57:48.913Z,2.58
2023-05-07T02:00:15.973Z,3.15
2023-05-07T02:02:42.897Z,2.28
2023-05-07T02:05:09.985Z,2.75
2023-05-07T02:07:36.895Z,2.72
2023-05-07T02:10:04.495Z,3.50
2023-05-07T02:12:32.768Z,2.80
2023-05-07T02:15:00.957Z,2.70
2023-05-07T02:17:28.687Z,2.55
2023-05-07T02:19:55.556Z,2.50
2023-05-07T02:22:22.341Z,2.47
2023-05-07T02:24:50.147Z,2.80
2023-05-07T02:27:17.447Z,3.20
2023-05-07T02:29:44.234Z,2.90
2023-05-07T02:32:11.428Z,3.40
2023-05-07T02:34:38.219Z,4.30
2023-05-07T02:37:05.283Z,4.60
2023-05-07T02:39:32.237Z,4.40
2023-05-07T02:41:59.498Z,5.30
2023-05-07T02:44:26.518Z,4.10
2023-05-07T02:46:53.787Z,3.92
2023-05-07T02:49:20.850Z,4.30
2023-05-07T02:51:47.687Z,4.32
2023-05-07T02:54:17.248Z,4.07
2023-05-07T02:56:44.034Z,4.90
2023-05-07T02:59:11.453Z,3.97
2023-05-07T03:01:38.309Z,3.78
2023-05-07T03:04:05.510Z,3.72
2023-05-07T03:06:32.545Z,3.92
2023-05-07T03:08:59.321Z,4.05
2023-05-07T03:11:26.461Z,4.40
2023-05-07T03:13:53.458Z,4.20
2023-05-07T03:16:20.615Z,4.82
2023-05-07T03:18:47.407Z,5.00
2023-05-07T03:21:14.227Z,5.30
2023-05-07T03:23:41.039Z,4.95
2023-05-07T03:26:07.834Z,5.20
2023-05-07T03:28:35.021Z,5.47
2023-05-07T03:31:03.079Z,6.32
2023-05-07T03:33:29.921Z,6.13
2023-05-07T03:35:57.169Z,6.22
2023-05-07T03:38:24.652Z,7.03
2023-05-07T03:40:51.494Z,6.50
2023-05-07T03:43:18.221Z,5.55
2023-05-07T03:45:45.136Z,6.10
2023-05-07T03:48:11.978Z,8.15
2023-05-07T03:50:40.229Z,7.28
2023-05-07T03:53:07.126Z,7.18
2023-05-07T03:55:34.659Z,8.45
2023-05-07T03:58:01.416Z,8.07
2023-05-07T04:00:28.322Z,8.18
2023-05-07T04:02:58.301Z,8.90
2023-05-07T04:05:25.564Z,10.75
2023-05-07T04:07:52.476Z,10.48
2023-05-07T04:10:19.595Z,10.00
2023-05-07T04:12:46.392Z,10.07
2023-05-07T04:15:13.303Z,9.85
2023-05-07T04:17:40.092Z,9.50
2023-05-07T04:20:08.373Z,10.25
2023-05-07T04:22:36.466Z,9.90
2023-05-07T04:25:03.925Z,8.77
2023-05-07T04:27:30.740Z,7.95
2023-05-07T04:29:57.733Z,8.77
2023-05-07T04:32:26.077Z,9.40
2023-05-07T04:34:54.558Z,10.77
2023-05-07T04:37:21.454Z,9.93
2023-05-07T04:39:48.906Z,10.07
2023-05-07T04:42:19.221Z,10.02
2023-05-07T04:44:46.805Z,11.88
2023-05-07T04:47:13.715Z,12.45
2023-05-07T04:49:40.551Z,13.32
2023-05-07T04:52:07.323Z,14.25
2023-05-07T04:54:34.271Z,14.10
2023-05-07T04:57:01.437Z,14.82
2023-05-07T04:59:28.306Z,14.65
2023-05-07T05:01:57.195Z,14.63
2023-05-07T05:04:24.140Z,15.40
2023-05-07T05:06:51.333Z,14.63
2023-05-07T05:09:18.549Z,15.88
2023-05-07T05:11:45.611Z,15.10
2023-05-07T05:14:12.527Z,16.50
2023-05-07T05:16:39.651Z,15.73
2023-05-07T05:19:07.354Z,16.02
2023-05-07T05:21:34.218Z,15.75
2023-05-07T05:24:01.226Z,16.02
2023-05-07T05:26:28.022Z,15.30
2023-05-07T05:28:54.858Z,15.63
2023-05-07T05:31:24.306Z,16.55
2023-05-07T05:33:51.112Z,16.88
2023-05-07T05:36:19.043Z,16.88
2023-05-07T05:38:45.878Z,16.95
2023-05-07T05:41:15.272Z,17.02
2023-05-07T05:43:42.465Z,17.80
2023-05-07T05:46:17.036Z,19.05
2023-05-07T05:48:45.130Z,18.85
2023-05-07T05:51:13.519Z,19.08
2023-05-07T05:53:42.072Z,18.85
2023-05-07T05:56:09.574Z,18.23
2023-05-07T05:58:38.799Z,18.08
2023-05-07T06:01:07.338Z,17.33
2023-05-07T06:03:34.663Z,19.00
2023-05-07T06:06:04.925Z,18.38
2023-05-07T06:08:32.962Z,17.13
2023-05-07T06:10:59.904Z,18.35
2023-05-07T06:13:29.678Z,17.85
2023-05-07T06:15:56.612Z,17.83
2023-05-07T06:18:25.004Z,17.33
2023-05-07T06:20:53.525Z,16.83
2023-05-07T06:23:20.576Z,17.63
2023-05-07T06:25:51.749Z,16.25
2023-05-07T06:28:24.160Z,16.98
2023-05-07T06:30:52.169Z,15.90
2023-05-07T06:33:21.744Z,17.00
2023-05-07T06:35:48.601Z,17.23
2023-05-07T06:38:16.444Z,16.55
2023-05-07T06:40:45.389Z,16.60
2023-05-07T06:43:13.988Z,16.65
2023-05-07T06:45:49.083Z,16.83
2023-05-07T06:48:18.089Z,15.85
2023-05-07T06:50:47.578Z,16.40
2023-05-07T06:53:14.841Z,15.98
2023-05-07T06:55:43.110Z,15.40
2023-05-07T06:58:13.837Z,16.35
2023-05-07T07:00:48.090Z,16.55
2023-05-07T07:03:17.538Z,16.58
2023-05-07T07:05:44.483Z,16.40
2023-05-07T07:08:11.334Z,17.35
2023-05-07T07:10:45.413Z,16.20
2023-05-07T07:13:12.247Z,15.95
2023-05-07T07:15:40.498Z,16.90
2023-05-07T07:18:07.939Z,16.55
2023-05-07T07:20:34.845Z,15.77
2023-05-07T07:23:01.768Z,14.77
2023-05-07T07:25:28.584Z,16.15
2023-05-07T07:27:55.634Z,15.38
2023-05-07T07:30:22.557Z,14.13
2023-05-07T07:32:49.373Z,14.38
2023-05-07T07:35:16.404Z,14.23
2023-05-07T07:37:43.451Z,14.63
2023-05-07T07:40:13.238Z,14.52
2023-05-07T07:42:40.376Z,14.40
2023-05-07T07:45:08.402Z,13.88
2023-05-07T07:47:35.247Z,13.85
2023-05-07T07:50:02.545Z,12.93
2023-05-07T07:52:29.303Z,14.38
2023-05-07T07:54:56.116Z,13.02
2023-05-07T07:57:22.904Z,13.30
2023-05-07T07:59:50.118Z,14.85
2023-05-07T08:02:17.317Z,15.15
2023-05-07T08:04:47.404Z,13.27
2023-05-07T08:07:14.800Z,14.32
2023-05-07T08:09:41.972Z,14.02
2023-05-07T08:12:08.766Z,13.20
2023-05-07T08:14:38.425Z,13.07
2023-05-07T08:17:05.855Z,13.25
2023-05-07T08:19:32.697Z,12.98
2023-05-07T08:22:00.167Z,13.10
2023-05-07T08:24:27.034Z,12.25
2023-05-07T08:26:54.016Z,14.10
2023-05-07T08:29:21.004Z,12.73
2023-05-07T08:31:47.874Z,12.75
2023-05-07T08:34:16.044Z,13.88
2023-05-07T08:36:42.986Z,14.15
2023-05-07T08:39:09.798Z,13.43
2023-05-07T08:41:36.685Z,13.38
2023-05-07T08:44:04.027Z,13.10
2023-05-07T08:46:34.297Z,13.13
2023-05-07T08:49:01.616Z,12.27
2023-05-07T08:51:28.878Z,13.05
2023-05-07T08:53:55.664Z,11.40
2023-05-07T08:56:23.015Z,12.35
2023-05-07T08:58:50.065Z,11.02
2023-05-07T09:01:18.184Z,12.82
2023-05-07T09:03:46.188Z,12.30
2023-05-07T09:06:14.536Z,12.38
2023-05-07T09:08:41.335Z,13.18
2023-05-07T09:11:08.186Z,15.32
2023-05-07T09:13:34.996Z,13.95
2023-05-07T09:16:12.104Z,13.88
2023-05-07T09:18:43.383Z,13.65
2023-05-07T09:21:18.002Z,12.20
2023-05-07T09:23:45.796Z,12.88
2023-05-07T09:26:13.091Z,12.40
2023-05-07T09:28:46.293Z,11.98
2023-05-07T09:31:14.708Z,12.32
2023-05-07T09:33:42.334Z,11.40
2023-05-07T09:36:12.138Z,11.43
2023-05-07T09:38:39.962Z,12.90
2023-05-07T09:41:16.685Z,11.75
2023-05-07T09:43:43.587Z,11.27
2023-05-07T09:46:19.558Z,11.60
2023-05-07T09:48:46.475Z,11.73
2023-05-07T09:51:35.307Z,10.85
2023-05-07T09:54:04.729Z,11.93
2023-05-07T09:56:32.944Z,11.35
2023-05-07T09:59:03.579Z,10.23
2023-05-07T10:01:31.900Z,9.95
2023-05-07T10:03:59.717Z,10.25
2023-05-07T10:06:28.397Z,9.95
2023-05-07T10:08:57.838Z,10.20
2023-05-07T10:11:25.727Z,10.82
2023-05-07T10:13:52.720Z,10.63
2023-05-07T10:16:29.646Z,10.27
2023-05-07T10:19:01.037Z,10.38
2023-05-07T10:21:31.466Z,10.30
2023-05-07T10:24:19.699Z,9.00
2023-05-07T10:26:55.248Z,10.15
2023-05-07T10:29:30.862Z,9.95
2023-05-07T10:32:20.653Z,10.82
2023-05-07T10:34:52.074Z,9.45
2023-05-07T10:37:18.921Z,9.15
2023-05-07T10:42:30.195Z,9.00
2023-05-07T10:44:57.028Z,10.02
2023-05-07T10:47:24.300Z,11.38
2023-05-07T10:49:51.359Z,10.02
2023-05-07T10:52:30.353Z,11.23
2023-05-07T10:55:18.417Z,10.18
2023-05-07T10:57:45.705Z,11.48
2023-05-07T11:00:37.873Z,11.15
2023-05-07T11:03:08.134Z,10.75
2023-05-07T11:05:38.318Z,10.52
2023-05-07T11:08:09.783Z,10.20
2023-05-07T11:10:56.500Z,10.73
2023-05-07T11:13:43.139Z,9.57
2023-05-07T11:16:19.962Z,10.10
2023-05-07T11:18:55.053Z,11.23
2023-05-07T11:21:44.465Z,11.02
2023-05-07T11:24:11.790Z,12.23
2023-05-07T11:26:49.289Z,11.27
2023-05-07T11:29:21.932Z,11.30
2023-05-07T11:31:55.926Z,10.65
2023-05-07T11:34:24.006Z,10.15
2023-05-07T11:36:52.724Z,10.70
2023-05-07T11:39:36.231Z,10.60
2023-05-07T11:42:03.460Z,9.27
2023-05-07T11:44:51.328Z,8.63
2023-05-07T11:47:23.002Z,9.38
2023-05-07T11:49:54.679Z,8.82
2023-05-07T11:52:24.585Z,9.73
2023-05-07T11:54:59.150Z,9.93
2023-05-07T11:57:30.255Z,9.13
2023-05-07T12:00:05.977Z,8.45
2023-05-07T12:02:36.378Z,9.23
2023-05-07T12:05:07.177Z,7.43
2023-05-07T12:07:40.756Z,9.32
2023-05-07T12:10:15.294Z,9.55
2023-05-07T12:12:46.199Z,8.82
2023-05-07T12:15:25.993Z,9.07
2023-05-07T12:18:04.489Z,9.75
2023-05-07T12:20:31.764Z,8.82
2023-05-07T12:23:00.825Z,8.13
2023-05-07T12:25:27.687Z,8.75
2023-05-07T12:27:56.357Z,9.38
2023-05-07T12:30:27.977Z,9.48
2023-05-07T12:32:56.263Z,9.60
2023-05-07T12:35:45.603Z,9.50
2023-05-07T12:38:25.214Z,9.82
2023-05-07T12:40:55.652Z,8.70
2023-05-07T12:43:27.138Z,8.20
2023-05-07T12:46:02.220Z,8.27
2023-05-07T12:48:31.732Z,8.95
2023-05-07T12:50:59.504Z,8.65
2023-05-07T12:53:29.478Z,8.43
2023-05-07T12:55:58.255Z,7.32
2023-05-07T12:58:30.482Z,7.18
2023-05-07T13:01:00.781Z,8.57
2023-05-07T13:03:34.953Z,8.07
2023-05-07T13:06:13.723Z,7.20
2023-05-07T13:08:43.942Z,7.28
2023-05-07T13:11:11.784Z,7.97
2023-05-07T13:13:39.858Z,7.68
2023-05-07T13:16:10.269Z,7.15
2023-05-07T13:18:40.157Z,7.13
2023-05-07T13:21:07.605Z,7.45
2023-05-07T13:23:35.084Z,7.88
2023-05-07T13:26:08.500Z,7.32
2023-05-07T13:28:43.358Z,7.22
2023-05-07T13:33:45.588Z,7.00
2023-05-07T13:36:14.736Z,7.00
2023-05-07T14:00:14.679Z,6.22
2023-05-07T14:02:41.864Z,6.30
2023-05-07T14:05:11.251Z,6.53
2023-05-07T14:07:39.747Z,6.53
2023-05-07T14:10:07.130Z,6.43
2023-05-07T14:12:35.796Z,6.43
2023-05-07T14:15:02.905Z,5.70
2023-05-07T14:17:31.782Z,6.57
2023-05-07T14:19:58.691Z,6.43
2023-05-07T14:22:29.338Z,6.63
2023-05-07T14:25:06.320Z,6.40
2023-05-07T14:27:37.723Z,6.38
2023-05-07T14:30:06.752Z,6.20
2023-05-07T14:32:44.417Z,6.40
2023-05-07T14:35:11.644Z,6.18
2023-05-07T14:37:38.618Z,5.72
2023-05-07T14:40:06.025Z,5.45
2023-05-07T14:42:32.808Z,5.55
2023-05-07T14:45:00.976Z,5.53
2023-05-07T14:47:28.072Z,5.15
2023-05-07T14:49:55.514Z,5.13
2023-05-07T14:52:22.843Z,5.22
2023-05-07T14:54:50.366Z,4.97
2023-05-07T14:57:17.304Z,5.05
2023-05-07T14:59:44.206Z,5.35
2023-05-07T15:02:13.858Z,5.35
2023-05-07T15:04:47.150Z,5.35
2023-05-07T15:07:17.435Z,4.50
2023-05-07T15:09:45.377Z,5.13
2023-05-07T15:12:12.756Z,4.68
2023-05-07T15:14:40.101Z,4.97
2023-05-07T15:17:07.260Z,4.53
2023-05-07T15:19:35.104Z,4.80
2023-05-07T15:22:05.494Z,4.28
2023-05-07T15:24:33.983Z,4.53
2023-05-07T15:27:01.957Z,4.20
2023-05-07T15:29:28.879Z,4.38
2023-05-07T15:31:56.120Z,4.63
2023-05-07T15:34:23.677Z,4.70
2023-05-07T15:36:50.788Z,4.50
2023-05-07T15:39:20.861Z,4.07
2023-05-07T15:41:48.263Z,4.30
2023-05-07T15:44:15.170Z,4.28
2023-05-07T15:46:45.584Z,4.18
2023-05-07T15:49:13.132Z,4.32
2023-05-07T15:51:39.874Z,4.07
2023-05-07T15:54:10.860Z,4.00
2023-05-07T15:56:37.953Z,3.90
2023-05-07T15:59:30.607Z,4.25
2023-05-07T16:02:03.835Z,4.25
2023-05-07T16:04:38.860Z,4.55
2023-05-07T16:07:06.574Z,4.30
2023-05-07T16:09:45.878Z,4.10
2023-05-07T16:12:24.700Z,4.80
2023-05-07T16:15:01.301Z,4.63
2023-05-07T16:17:30.077Z,4.68
2023-05-07T16:20:03.725Z,4.50
2023-05-07T16:23:01.262Z,4.82
2023-05-07T16:25:41.202Z,5.18
2023-05-07T16:28:14.613Z,4.47
2023-05-07T16:33:33.225Z,5.18
2023-05-07T16:41:52.119Z,6.07
2023-05-07T16:44:23.853Z,6.05
2023-05-07T16:46:51.141Z,5.80
2023-05-07T16:49:27.037Z,5.82
2023-05-07T16:55:13.539Z,6.10
2023-05-07T16:58:00.675Z,6.22
2023-05-07T17:03:22.883Z,6.00
2023-05-07T17:05:53.243Z,6.38
2023-05-07T17:08:30.876Z,6.43
2023-05-07T17:11:00.943Z,6.38
2023-05-07T17:13:33.597Z,6.68
2023-05-07T17:16:10.278Z,5.75
2023-05-07T17:18:43.946Z,6.55
2023-05-07T17:24:03.448Z,8.57
2023-05-07T17:26:40.686Z,12.98
2023-05-07T17:29:21.203Z,8.15
2023-05-07T17:31:55.903Z,7.57
2023-05-07T17:34:23.631Z,7.78
2023-05-07T17:36:57.432Z,7.45
2023-05-07T17:42:40.790Z,6.97
2023-05-07T17:48:03.287Z,6.75
2023-05-07T17:53:31.607Z,6.35
2023-05-07T17:55:58.846Z,6.53
2023-05-07T17:58:30.900Z,6.43
2023-05-07T18:01:03.298Z,6.78
2023-05-07T18:03:40.806Z,6.28
2023-05-07T18:06:18.658Z,6.35
2023-05-07T18:14:20.748Z,6.75
2023-05-07T18:17:44.636Z,6.23
2023-05-07T18:22:56.845Z,6.47
2023-05-07T18:25:30.618Z,7.53
2023-05-07T18:31:10.970Z,6.10
2023-05-07T18:36:40.839Z,7.82
2023-05-07T18:39:13.195Z,6.97
2023-05-07T18:56:46.723Z,6.43
2023-05-07T19:07:39.469Z,6.72
2023-05-07T19:10:10.417Z,7.45
2023-05-07T19:12:39.854Z,7.47
2023-05-07T19:15:11.977Z,7.25
2023-05-07T19:17:46.001Z,6.95
2023-05-07T19:20:23.356Z,6.95
2023-05-07T19:23:02.231Z,7.95
2023-05-07T19:33:41.146Z,8.98
2023-05-07T19:36:08.321Z,9.30
2023-05-07T19:38:44.274Z,9.68
2023-05-07T19:41:16.430Z,9.85
2023-05-07T19:49:26.390Z,10.05
2023-05-07T20:00:57.522Z,10.93
2023-05-07T20:23:36.702Z,14.52
2023-05-07T20:32:10.303Z,14.63
2023-05-07T20:34:39.281Z,14.63
2023-05-07T20:37:23.573Z,14.63
2023-05-07T20:39:59.000Z,14.55
2023-05-07T20:42:29.721Z,14.77
2023-05-07T20:45:32.372Z,15.63
2023-05-07T20:48:02.998Z,16.58
2023-05-07T20:50:31.036Z,16.10
2023-05-07T20:52:59.910Z,16.45
2023-05-07T20:55:31.437Z,16.80
2023-05-07T20:57:59.183Z,16.20
2023-05-07T21:00:27.376Z,17.67
2023-05-07T21:02:57.149Z,17.67
2023-05-07T21:05:36.011Z,17.83
2023-05-07T21:08:05.079Z,17.25
2023-05-07T21:10:32.634Z,18.27
2023-05-07T21:13:02.883Z,18.20
2023-05-07T21:15:35.438Z,17.70
2023-05-07T21:18:02.664Z,18.23
2023-05-07T21:20:30.431Z,16.73
2023-05-07T21:23:11.410Z,17.70
2023-05-07T21:25:39.344Z,16.60
2023-05-07T21:28:11.470Z,17.90
2023-05-07T21:30:40.729Z,17.35
2023-05-07T21:33:08.727Z,18.33
2023-05-07T21:35:39.001Z,18.13
2023-05-07T21:38:08.810Z,18.63
2023-05-07T21:40:37.678Z,19.25
2023-05-07T21:43:05.642Z,18.52
2023-05-07T21:45:33.026Z,19.38
2023-05-07T21:48:02.591Z,17.73
2023-05-07T21:50:33.646Z,18.30
2023-05-07T21:53:09.655Z,18.30
2023-05-07T21:55:37.557Z,20.10
2023-05-07T21:58:08.608Z,18.40
2023-05-07T22:00:37.453Z,18.10
2023-05-07T22:03:04.638Z,18.73
2023-05-07T22:05:31.560Z,19.95
2023-05-07T22:07:58.275Z,17.75
2023-05-07T22:10:25.624Z,19.08
2023-05-07T22:12:54.224Z,17.55
2023-05-07T22:15:24.177Z,17.67
2023-05-07T22:17:52.263Z,18.05
2023-05-07T22:20:19.104Z,18.02
2023-05-07T22:22:52.296Z,18.35
2023-05-07T22:25:20.226Z,16.48
2023-05-07T22:27:47.371Z,17.95
2023-05-07T22:30:15.354Z,17.48
2023-05-07T22:32:43.747Z,17.05
2023-05-07T22:35:10.779Z,18.05
2023-05-07T22:37:37.858Z,16.92
2023-05-07T22:40:05.548Z,17.77
2023-05-07T22:42:32.335Z,17.23
2023-05-07T22:44:59.217Z,16.20
2023-05-07T22:47:28.891Z,15.30
2023-05-07T22:49:56.287Z,15.35
2023-05-07T22:52:24.794Z,16.10
2023-05-07T22:54:51.672Z,15.93
2023-05-07T22:57:21.407Z,15.25
2023-05-07T22:59:49.380Z,14.90
2023-05-07T23:02:16.716Z,13.52
2023-05-07T23:04:43.579Z,15.52
2023-05-07T23:07:12.615Z,14.65
2023-05-07T23:09:40.539Z,14.18
2023-05-07T23:12:07.407Z,13.13
2023-05-07T23:14:35.586Z,14.07
2023-05-07T23:17:03.768Z,14.52
2023-05-07T23:19:30.861Z,14.48
2023-05-07T23:21:57.787Z,13.48
2023-05-07T23:24:24.550Z,14.05
2023-05-07T23:26:51.460Z,13.65
2023-05-07T23:29:18.213Z,13.95
2023-05-07T23:31:45.145Z,14.32
2023-05-07T23:34:12.470Z,13.95
2023-05-07T23:36:39.771Z,14.57
2023-05-07T23:39:06.544Z,13.40
2023-05-07T23:41:35.913Z,13.55
2023-05-07T23:44:03.437Z,14.45
2023-05-07T23:46:30.394Z,13.73
2023-05-07T23:48:57.507Z,14.40
2023-05-07T23:51:25.200Z,14.68
2023-05-07T23:53:52.615Z,14.25
2023-05-07T23:56:19.504Z,14.85
2023-05-07T23:58:47.645Z,13.55
